sensor_id;sensor_type;location;lat;lon;timestamp;temperature;humidity
65072;DHT22;51663;52.310;17.016;2022-12-18T00:02:55;23.60;19.80
65072;DHT22;51663;52.310;17.016;2022-12-18T00:05:58;23.50;19.80
65072;DHT22;51663;52.310;17.016;2022-12-18T00:09:01;23.20;19.90
65072;DHT22;51663;52.310;17.016;2022-12-18T00:12:03;22.90;20.10
65072;DHT22;51663;52.310;17.016;2022-12-18T00:15:16;22.40;20.30
65072;DHT22;51663;52.310;17.016;2022-12-18T00:18:18;22.20;20.60
65072;DHT22;51663;52.310;17.016;2022-12-18T00:21:21;22.40;20.60
65072;DHT22;51663;52.310;17.016;2022-12-18T00:24:24;22.70;20.30
65072;DHT22;51663;52.310;17.016;2022-12-18T00:27:27;23.00;20.10
65072;DHT22;51663;52.310;17.016;2022-12-18T00:30:29;23.10;20.00
65072;DHT22;51663;52.310;17.016;2022-12-18T00:33:31;23.10;19.90
65072;DHT22;51663;52.310;17.016;2022-12-18T00:36:34;23.00;19.80
65072;DHT22;51663;52.310;17.016;2022-12-18T00:39:36;23.20;19.70
65072;DHT22;51663;52.310;17.016;2022-12-18T00:42:38;23.00;19.50
65072;DHT22;51663;52.310;17.016;2022-12-18T00:45:59;23.10;19.50
65072;DHT22;51663;52.310;17.016;2022-12-18T00:49:01;22.60;19.80
65072;DHT22;51663;52.310;17.016;2022-12-18T00:52:04;22.40;20.00
65072;DHT22;51663;52.310;17.016;2022-12-18T00:55:06;22.40;20.00
65072;DHT22;51663;52.310;17.016;2022-12-18T00:58:10;21.80;20.20
65072;DHT22;51663;52.310;17.016;2022-12-18T01:01:12;21.40;20.60
65072;DHT22;51663;52.310;17.016;2022-12-18T01:04:15;21.60;20.60
65072;DHT22;51663;52.310;17.016;2022-12-18T01:07:17;21.60;20.80
65072;DHT22;51663;52.310;17.016;2022-12-18T01:10:20;22.20;20.40
65072;DHT22;51663;52.310;17.016;2022-12-18T01:13:21;22.40;20.10
65072;DHT22;51663;52.310;17.016;2022-12-18T01:16:24;22.60;19.90
65072;DHT22;51663;52.310;17.016;2022-12-18T01:19:26;22.80;19.60
65072;DHT22;51663;52.310;17.016;2022-12-18T01:22:28;22.70;19.60
65072;DHT22;51663;52.310;17.016;2022-12-18T01:25:30;22.70;19.70
65072;DHT22;51663;52.310;17.016;2022-12-18T01:28:32;22.50;19.70
65072;DHT22;51663;52.310;17.016;2022-12-18T01:31:34;22.20;19.90
65072;DHT22;51663;52.310;17.016;2022-12-18T01:34:36;22.50;19.80
65072;DHT22;51663;52.310;17.016;2022-12-18T01:37:38;22.60;19.80
65072;DHT22;51663;52.310;17.016;2022-12-18T01:40:41;22.40;19.60
65072;DHT22;51663;52.310;17.016;2022-12-18T01:43:53;22.50;19.60
65072;DHT22;51663;52.310;17.016;2022-12-18T01:46:56;22.30;19.80
65072;DHT22;51663;52.310;17.016;2022-12-18T01:50:00;22.30;19.60
65072;DHT22;51663;52.310;17.016;2022-12-18T01:53:05;22.10;19.60
65072;DHT22;51663;52.310;17.016;2022-12-18T01:56:10;22.00;20.00
65072;DHT22;51663;52.310;17.016;2022-12-18T01:59:14;21.60;19.90
65072;DHT22;51663;52.310;17.016;2022-12-18T02:02:16;21.70;20.00
65072;DHT22;51663;52.310;17.016;2022-12-18T02:09:28;22.20;19.80
65072;DHT22;51663;52.310;17.016;2022-12-18T02:12:45;22.40;19.50
65072;DHT22;51663;52.310;17.016;2022-12-18T02:19:00;22.40;19.50
65072;DHT22;51663;52.310;17.016;2022-12-18T02:31:54;22.00;19.60
65072;DHT22;51663;52.310;17.016;2022-12-18T02:34:59;22.30;19.40
65072;DHT22;51663;52.310;17.016;2022-12-18T02:38:03;22.50;19.50
65072;DHT22;51663;52.310;17.016;2022-12-18T02:41:06;22.60;19.50
65072;DHT22;51663;52.310;17.016;2022-12-18T02:44:11;22.30;19.50
65072;DHT22;51663;52.310;17.016;2022-12-18T02:47:16;22.50;19.40
65072;DHT22;51663;52.310;17.016;2022-12-18T02:50:30;22.00;19.50
65072;DHT22;51663;52.310;17.016;2022-12-18T02:53:45;21.80;20.20
65072;DHT22;51663;52.310;17.016;2022-12-18T02:56:53;22.20;19.40
65072;DHT22;51663;52.310;17.016;2022-12-18T03:00:04;22.00;19.30
65072;DHT22;51663;52.310;17.016;2022-12-18T03:03:26;21.80;19.30
65072;DHT22;51663;52.310;17.016;2022-12-18T03:06:41;21.60;19.40
65072;DHT22;51663;52.310;17.016;2022-12-18T03:09:48;21.90;19.50
65072;DHT22;51663;52.310;17.016;2022-12-18T03:12:58;22.10;19.20
65072;DHT22;51663;52.310;17.016;2022-12-18T03:16:03;22.20;19.00
65072;DHT22;51663;52.310;17.016;2022-12-18T03:19:18;21.90;19.10
65072;DHT22;51663;52.310;17.016;2022-12-18T03:22:24;22.00;19.20
65072;DHT22;51663;52.310;17.016;2022-12-18T03:25:30;22.20;19.20
65072;DHT22;51663;52.310;17.016;2022-12-18T03:28:37;21.90;19.30
65072;DHT22;51663;52.310;17.016;2022-12-18T03:31:42;21.90;19.20
65072;DHT22;51663;52.310;17.016;2022-12-18T03:34:49;22.00;19.30
65072;DHT22;51663;52.310;17.016;2022-12-18T03:37:52;22.10;19.40
65072;DHT22;51663;52.310;17.016;2022-12-18T03:51:10;21.80;19.60
65072;DHT22;51663;52.310;17.016;2022-12-18T03:54:14;22.00;19.30
65072;DHT22;51663;52.310;17.016;2022-12-18T03:57:19;22.00;19.30
65072;DHT22;51663;52.310;17.016;2022-12-18T04:00:22;21.80;19.20
65072;DHT22;51663;52.310;17.016;2022-12-18T04:03:24;21.70;19.60
65072;DHT22;51663;52.310;17.016;2022-12-18T04:06:29;21.80;19.50
65072;DHT22;51663;52.310;17.016;2022-12-18T04:09:33;21.70;19.60
65072;DHT22;51663;52.310;17.016;2022-12-18T04:12:37;21.80;19.60
65072;DHT22;51663;52.310;17.016;2022-12-18T04:15:39;21.40;19.70
65072;DHT22;51663;52.310;17.016;2022-12-18T04:18:42;21.20;19.80
65072;DHT22;51663;52.310;17.016;2022-12-18T04:21:44;21.30;19.70
65072;DHT22;51663;52.310;17.016;2022-12-18T04:24:46;21.50;19.70
65072;DHT22;51663;52.310;17.016;2022-12-18T04:27:48;21.80;19.50
65072;DHT22;51663;52.310;17.016;2022-12-18T04:30:50;21.60;19.50
65072;DHT22;51663;52.310;17.016;2022-12-18T04:33:52;21.70;20.00
65072;DHT22;51663;52.310;17.016;2022-12-18T04:36:54;21.50;19.60
65072;DHT22;51663;52.310;17.016;2022-12-18T04:39:56;21.70;19.60
65072;DHT22;51663;52.310;17.016;2022-12-18T04:42:58;21.30;19.50
65072;DHT22;51663;52.310;17.016;2022-12-18T04:46:07;21.10;19.60
65072;DHT22;51663;52.310;17.016;2022-12-18T04:49:10;21.50;19.60
65072;DHT22;51663;52.310;17.016;2022-12-18T04:52:12;21.50;19.50
65072;DHT22;51663;52.310;17.016;2022-12-18T04:55:14;21.30;19.50
65072;DHT22;51663;52.310;17.016;2022-12-18T04:58:16;21.40;19.40
65072;DHT22;51663;52.310;17.016;2022-12-18T05:01:19;21.60;19.40
65072;DHT22;51663;52.310;17.016;2022-12-18T05:04:21;21.60;19.30
65072;DHT22;51663;52.310;17.016;2022-12-18T05:07:23;21.50;19.30
65072;DHT22;51663;52.310;17.016;2022-12-18T05:10:25;21.50;19.50
65072;DHT22;51663;52.310;17.016;2022-12-18T05:13:28;21.80;19.30
65072;DHT22;51663;52.310;17.016;2022-12-18T05:16:30;21.90;19.20
65072;DHT22;51663;52.310;17.016;2022-12-18T05:19:32;21.80;19.20
65072;DHT22;51663;52.310;17.016;2022-12-18T05:22:34;21.90;19.10
65072;DHT22;51663;52.310;17.016;2022-12-18T05:25:36;22.00;19.00
65072;DHT22;51663;52.310;17.016;2022-12-18T05:28:38;22.00;19.00
65072;DHT22;51663;52.310;17.016;2022-12-18T05:31:40;21.80;19.20
65072;DHT22;51663;52.310;17.016;2022-12-18T05:34:44;21.90;19.30
65072;DHT22;51663;52.310;17.016;2022-12-18T05:37:46;22.00;19.20
65072;DHT22;51663;52.310;17.016;2022-12-18T05:40:49;22.00;19.20
65072;DHT22;51663;52.310;17.016;2022-12-18T05:43:51;22.10;19.40
65072;DHT22;51663;52.310;17.016;2022-12-18T05:46:53;21.90;19.20
65072;DHT22;51663;52.310;17.016;2022-12-18T05:49:56;21.80;19.40
65072;DHT22;51663;52.310;17.016;2022-12-18T05:52:58;21.50;19.60
65072;DHT22;51663;52.310;17.016;2022-12-18T05:56:01;21.70;19.60
65072;DHT22;51663;52.310;17.016;2022-12-18T05:59:04;21.80;19.60
65072;DHT22;51663;52.310;17.016;2022-12-18T06:02:06;21.80;19.50
65072;DHT22;51663;52.310;17.016;2022-12-18T06:05:08;21.90;19.70
65072;DHT22;51663;52.310;17.016;2022-12-18T06:08:12;21.80;19.70
65072;DHT22;51663;52.310;17.016;2022-12-18T06:11:18;21.50;19.90
65072;DHT22;51663;52.310;17.016;2022-12-18T06:14:21;21.40;20.00
65072;DHT22;51663;52.310;17.016;2022-12-18T06:17:23;20.80;20.00
65072;DHT22;51663;52.310;17.016;2022-12-18T06:20:29;20.90;20.20
65072;DHT22;51663;52.310;17.016;2022-12-18T06:23:34;21.50;20.00
65072;DHT22;51663;52.310;17.016;2022-12-18T06:26:38;21.70;19.80
65072;DHT22;51663;52.310;17.016;2022-12-18T06:29:40;21.70;19.60
65072;DHT22;51663;52.310;17.016;2022-12-18T06:32:42;21.40;20.00
65072;DHT22;51663;52.310;17.016;2022-12-18T06:35:46;21.30;20.20
65072;DHT22;51663;52.310;17.016;2022-12-18T06:38:49;21.10;20.20
65072;DHT22;51663;52.310;17.016;2022-12-18T06:41:51;20.70;20.40
65072;DHT22;51663;52.310;17.016;2022-12-18T06:44:53;20.90;20.50
65072;DHT22;51663;52.310;17.016;2022-12-18T06:47:55;21.00;20.30
65072;DHT22;51663;52.310;17.016;2022-12-18T06:50:58;21.10;20.20
65072;DHT22;51663;52.310;17.016;2022-12-18T06:54:01;21.50;20.00
65072;DHT22;51663;52.310;17.016;2022-12-18T06:57:03;21.30;20.10
65072;DHT22;51663;52.310;17.016;2022-12-18T07:00:06;21.50;20.00
65072;DHT22;51663;52.310;17.016;2022-12-18T07:03:10;21.40;20.00
65072;DHT22;51663;52.310;17.016;2022-12-18T07:06:15;21.10;20.20
65072;DHT22;51663;52.310;17.016;2022-12-18T07:09:17;21.10;20.80
65072;DHT22;51663;52.310;17.016;2022-12-18T07:12:19;21.00;20.00
65072;DHT22;51663;52.310;17.016;2022-12-18T07:15:22;20.60;20.30
65072;DHT22;51663;52.310;17.016;2022-12-18T07:18:23;20.80;20.40
65072;DHT22;51663;52.310;17.016;2022-12-18T07:21:26;20.80;20.40
65072;DHT22;51663;52.310;17.016;2022-12-18T07:24:28;21.10;20.30
65072;DHT22;51663;52.310;17.016;2022-12-18T07:27:30;21.00;20.30
65072;DHT22;51663;52.310;17.016;2022-12-18T07:30:32;21.10;20.20
65072;DHT22;51663;52.310;17.016;2022-12-18T07:33:34;20.60;20.30
65072;DHT22;51663;52.310;17.016;2022-12-18T07:36:37;20.90;20.50
65072;DHT22;51663;52.310;17.016;2022-12-18T07:39:39;21.10;20.50
65072;DHT22;51663;52.310;17.016;2022-12-18T07:42:41;21.00;20.40
65072;DHT22;51663;52.310;17.016;2022-12-18T07:45:44;21.00;20.50
65072;DHT22;51663;52.310;17.016;2022-12-18T07:48:46;21.10;20.40
65072;DHT22;51663;52.310;17.016;2022-12-18T07:51:51;21.20;20.50
65072;DHT22;51663;52.310;17.016;2022-12-18T07:54:55;21.40;20.10
65072;DHT22;51663;52.310;17.016;2022-12-18T07:58:00;21.60;20.30
65072;DHT22;51663;52.310;17.016;2022-12-18T08:01:08;21.60;20.20
65072;DHT22;51663;52.310;17.016;2022-12-18T08:04:12;21.60;20.20
65072;DHT22;51663;52.310;17.016;2022-12-18T08:07:14;22.00;19.90
65072;DHT22;51663;52.310;17.016;2022-12-18T08:10:17;22.30;19.80
65072;DHT22;51663;52.310;17.016;2022-12-18T08:13:19;22.10;19.70
65072;DHT22;51663;52.310;17.016;2022-12-18T08:16:22;22.10;19.80
65072;DHT22;51663;52.310;17.016;2022-12-18T08:19:24;22.20;20.00
65072;DHT22;51663;52.310;17.016;2022-12-18T08:22:26;22.50;19.80
65072;DHT22;51663;52.310;17.016;2022-12-18T08:25:28;22.80;19.70
65072;DHT22;51663;52.310;17.016;2022-12-18T08:28:30;22.60;19.70
65072;DHT22;51663;52.310;17.016;2022-12-18T08:31:32;22.10;20.00
65072;DHT22;51663;52.310;17.016;2022-12-18T08:34:36;22.30;20.00
65072;DHT22;51663;52.310;17.016;2022-12-18T08:37:38;21.90;20.30
65072;DHT22;51663;52.310;17.016;2022-12-18T08:40:41;22.40;20.10
65072;DHT22;51663;52.310;17.016;2022-12-18T08:43:43;22.80;19.80
65072;DHT22;51663;52.310;17.016;2022-12-18T08:47:04;22.40;19.80
65072;DHT22;51663;52.310;17.016;2022-12-18T08:50:07;22.60;19.80
65072;DHT22;51663;52.310;17.016;2022-12-18T08:53:09;22.70;19.80
65072;DHT22;51663;52.310;17.016;2022-12-18T08:56:12;22.90;19.70
65072;DHT22;51663;52.310;17.016;2022-12-18T08:59:14;22.90;19.60
65072;DHT22;51663;52.310;17.016;2022-12-18T09:02:20;23.00;19.70
65072;DHT22;51663;52.310;17.016;2022-12-18T09:05:23;22.70;19.80
65072;DHT22;51663;52.310;17.016;2022-12-18T09:08:25;22.90;20.00
65072;DHT22;51663;52.310;17.016;2022-12-18T09:11:28;22.60;19.80
65072;DHT22;51663;52.310;17.016;2022-12-18T09:14:31;22.50;19.90
65072;DHT22;51663;52.310;17.016;2022-12-18T09:17:33;22.80;20.00
65072;DHT22;51663;52.310;17.016;2022-12-18T09:20:36;22.80;19.90
65072;DHT22;51663;52.310;17.016;2022-12-18T09:23:38;22.40;20.00
65072;DHT22;51663;52.310;17.016;2022-12-18T09:26:40;22.60;20.00
65072;DHT22;51663;52.310;17.016;2022-12-18T09:29:44;22.50;20.00
65072;DHT22;51663;52.310;17.016;2022-12-18T09:32:46;22.90;20.00
65072;DHT22;51663;52.310;17.016;2022-12-18T09:35:49;23.10;19.90
65072;DHT22;51663;52.310;17.016;2022-12-18T09:38:51;23.10;19.80
65072;DHT22;51663;52.310;17.016;2022-12-18T09:41:55;22.70;20.00
65072;DHT22;51663;52.310;17.016;2022-12-18T09:44:59;22.80;20.10
65072;DHT22;51663;52.310;17.016;2022-12-18T09:48:02;22.60;20.20
65072;DHT22;51663;52.310;17.016;2022-12-18T09:51:12;22.50;20.20
65072;DHT22;51663;52.310;17.016;2022-12-18T09:54:40;22.60;20.30
65072;DHT22;51663;52.310;17.016;2022-12-18T09:57:49;22.70;20.30
65072;DHT22;51663;52.310;17.016;2022-12-18T10:00:54;22.70;20.30
65072;DHT22;51663;52.310;17.016;2022-12-18T10:03:56;22.80;20.50
65072;DHT22;51663;52.310;17.016;2022-12-18T10:07:09;22.70;20.30
65072;DHT22;51663;52.310;17.016;2022-12-18T10:10:28;23.10;20.30
65072;DHT22;51663;52.310;17.016;2022-12-18T10:14:18;23.60;19.90
65072;DHT22;51663;52.310;17.016;2022-12-18T10:20:49;23.70;19.60
65072;DHT22;51663;52.310;17.016;2022-12-18T10:27:25;23.60;19.60
65072;DHT22;51663;52.310;17.016;2022-12-18T10:30:27;23.70;19.60
65072;DHT22;51663;52.310;17.016;2022-12-18T10:33:31;23.80;19.50
65072;DHT22;51663;52.310;17.016;2022-12-18T10:36:34;23.90;19.70
65072;DHT22;51663;52.310;17.016;2022-12-18T10:39:37;24.10;19.60
65072;DHT22;51663;52.310;17.016;2022-12-18T10:42:40;23.90;20.10
65072;DHT22;51663;52.310;17.016;2022-12-18T10:49:26;23.80;19.70
65072;DHT22;51663;52.310;17.016;2022-12-18T10:52:29;23.90;19.60
65072;DHT22;51663;52.310;17.016;2022-12-18T10:55:35;24.20;19.50
65072;DHT22;51663;52.310;17.016;2022-12-18T10:58:39;23.30;19.70
65072;DHT22;51663;52.310;17.016;2022-12-18T11:01:53;23.60;19.50
65072;DHT22;51663;52.310;17.016;2022-12-18T11:04:57;23.80;19.60
65072;DHT22;51663;52.310;17.016;2022-12-18T11:08:00;23.70;19.50
65072;DHT22;51663;52.310;17.016;2022-12-18T11:11:06;23.90;19.50
65072;DHT22;51663;52.310;17.016;2022-12-18T11:14:28;23.90;19.40
65072;DHT22;51663;52.310;17.016;2022-12-18T11:17:35;23.80;19.40
65072;DHT22;51663;52.310;17.016;2022-12-18T11:20:38;23.80;19.30
65072;DHT22;51663;52.310;17.016;2022-12-18T11:23:50;23.80;19.50
65072;DHT22;51663;52.310;17.016;2022-12-18T11:26:53;23.50;19.80
65072;DHT22;51663;52.310;17.016;2022-12-18T11:33:25;23.60;20.00
65072;DHT22;51663;52.310;17.016;2022-12-18T11:36:42;23.30;20.00
65072;DHT22;51663;52.310;17.016;2022-12-18T11:39:59;23.30;19.90
65072;DHT22;51663;52.310;17.016;2022-12-18T11:47:03;23.40;19.90
65072;DHT22;51663;52.310;17.016;2022-12-18T11:50:17;23.60;19.70
65072;DHT22;51663;52.310;17.016;2022-12-18T11:53:20;23.40;19.80
65072;DHT22;51663;52.310;17.016;2022-12-18T11:56:39;23.30;19.80
65072;DHT22;51663;52.310;17.016;2022-12-18T12:13:15;23.70;19.60
65072;DHT22;51663;52.310;17.016;2022-12-18T12:39:32;22.90;20.00
65072;DHT22;51663;52.310;17.016;2022-12-18T12:42:42;23.20;19.90
65072;DHT22;51663;52.310;17.016;2022-12-18T12:46:07;23.30;19.80
65072;DHT22;51663;52.310;17.016;2022-12-18T12:49:26;23.50;19.70
65072;DHT22;51663;52.310;17.016;2022-12-18T12:52:39;23.50;19.80
65072;DHT22;51663;52.310;17.016;2022-12-18T12:55:43;23.40;19.60
65072;DHT22;51663;52.310;17.016;2022-12-18T13:05:48;23.50;19.80
65072;DHT22;51663;52.310;17.016;2022-12-18T13:08:57;23.30;19.80
65072;DHT22;51663;52.310;17.016;2022-12-18T13:12:05;23.20;19.70
65072;DHT22;51663;52.310;17.016;2022-12-18T13:16:04;23.20;20.00
65072;DHT22;51663;52.310;17.016;2022-12-18T13:19:22;23.20;19.80
65072;DHT22;51663;52.310;17.016;2022-12-18T13:22:30;23.10;19.80
65072;DHT22;51663;52.310;17.016;2022-12-18T13:25:37;22.80;20.00
65072;DHT22;51663;52.310;17.016;2022-12-18T13:38:34;22.80;19.90
65072;DHT22;51663;52.310;17.016;2022-12-18T13:41:44;23.10;19.90
65072;DHT22;51663;52.310;17.016;2022-12-18T13:44:47;22.90;19.90
65072;DHT22;51663;52.310;17.016;2022-12-18T13:47:49;23.20;19.80
65072;DHT22;51663;52.310;17.016;2022-12-18T13:51:06;23.20;19.70
65072;DHT22;51663;52.310;17.016;2022-12-18T13:54:37;23.00;19.70
65072;DHT22;51663;52.310;17.016;2022-12-18T13:57:41;22.90;19.80
65072;DHT22;51663;52.310;17.016;2022-12-18T14:00:44;23.00;19.80
65072;DHT22;51663;52.310;17.016;2022-12-18T14:03:47;22.80;19.70
65072;DHT22;51663;52.310;17.016;2022-12-18T14:07:03;22.50;20.00
65072;DHT22;51663;52.310;17.016;2022-12-18T14:10:13;22.40;20.30
65072;DHT22;51663;52.310;17.016;2022-12-18T14:13:40;22.80;20.00
65072;DHT22;51663;52.310;17.016;2022-12-18T14:16:44;22.70;20.10
65072;DHT22;51663;52.310;17.016;2022-12-18T14:19:49;22.70;20.20
65072;DHT22;51663;52.310;17.016;2022-12-18T14:22:52;23.10;20.10
65072;DHT22;51663;52.310;17.016;2022-12-18T14:25:54;23.00;19.90
65072;DHT22;51663;52.310;17.016;2022-12-18T14:29:25;22.60;19.90
65072;DHT22;51663;52.310;17.016;2022-12-18T14:32:28;22.50;20.00
65072;DHT22;51663;52.310;17.016;2022-12-18T14:35:31;22.60;20.00
65072;DHT22;51663;52.310;17.016;2022-12-18T14:38:40;22.80;19.90
65072;DHT22;51663;52.310;17.016;2022-12-18T14:41:42;22.90;19.90
65072;DHT22;51663;52.310;17.016;2022-12-18T14:44:44;22.90;19.80
65072;DHT22;51663;52.310;17.016;2022-12-18T14:48:52;22.90;19.80
65072;DHT22;51663;52.310;17.016;2022-12-18T14:51:32;22.50;19.90
65072;DHT22;51663;52.310;17.016;2022-12-18T14:54:37;22.70;20.00
65072;DHT22;51663;52.310;17.016;2022-12-18T14:57:39;22.30;19.90
65072;DHT22;51663;52.310;17.016;2022-12-18T15:00:43;22.10;20.10
65072;DHT22;51663;52.310;17.016;2022-12-18T15:03:46;21.80;20.20
65072;DHT22;51663;52.310;17.016;2022-12-18T15:06:48;22.30;20.30
65072;DHT22;51663;52.310;17.016;2022-12-18T15:10:13;22.40;20.20
65072;DHT22;51663;52.310;17.016;2022-12-18T15:13:22;21.90;20.00
65072;DHT22;51663;52.310;17.016;2022-12-18T15:16:26;21.80;20.30
65072;DHT22;51663;52.310;17.016;2022-12-18T15:19:38;22.00;20.30
65072;DHT22;51663;52.310;17.016;2022-12-18T15:22:41;21.80;20.20
65072;DHT22;51663;52.310;17.016;2022-12-18T15:25:44;21.70;20.50
65072;DHT22;51663;52.310;17.016;2022-12-18T15:32:20;21.70;20.40
65072;DHT22;51663;52.310;17.016;2022-12-18T15:35:24;21.40;20.40
65072;DHT22;51663;52.310;17.016;2022-12-18T15:38:26;21.70;20.60
65072;DHT22;51663;52.310;17.016;2022-12-18T15:41:32;22.10;20.40
65072;DHT22;51663;52.310;17.016;2022-12-18T15:44:36;22.00;20.50
65072;DHT22;51663;52.310;17.016;2022-12-18T15:47:39;21.90;20.40
65072;DHT22;51663;52.310;17.016;2022-12-18T15:50:41;22.10;20.40
65072;DHT22;51663;52.310;17.016;2022-12-18T15:53:44;22.10;20.20
65072;DHT22;51663;52.310;17.016;2022-12-18T15:56:46;21.80;20.40
65072;DHT22;51663;52.310;17.016;2022-12-18T16:00:11;21.70;20.40
65072;DHT22;51663;52.310;17.016;2022-12-18T16:03:13;21.90;20.30
65072;DHT22;51663;52.310;17.016;2022-12-18T16:06:16;21.90;20.30
65072;DHT22;51663;52.310;17.016;2022-12-18T16:09:18;21.90;20.20
65072;DHT22;51663;52.310;17.016;2022-12-18T16:12:27;21.70;20.30
65072;DHT22;51663;52.310;17.016;2022-12-18T16:15:29;21.50;20.40
65072;DHT22;51663;52.310;17.016;2022-12-18T16:18:31;21.30;20.80
65072;DHT22;51663;52.310;17.016;2022-12-18T16:21:33;21.50;20.50
65072;DHT22;51663;52.310;17.016;2022-12-18T16:24:35;21.90;20.40
65072;DHT22;51663;52.310;17.016;2022-12-18T16:27:38;21.50;20.50
65072;DHT22;51663;52.310;17.016;2022-12-18T16:30:40;21.40;20.50
65072;DHT22;51663;52.310;17.016;2022-12-18T16:33:42;21.50;20.50
65072;DHT22;51663;52.310;17.016;2022-12-18T16:36:45;21.50;20.60
65072;DHT22;51663;52.310;17.016;2022-12-18T16:39:47;21.30;20.50
65072;DHT22;51663;52.310;17.016;2022-12-18T16:42:49;21.70;20.40
65072;DHT22;51663;52.310;17.016;2022-12-18T16:45:51;21.70;20.40
65072;DHT22;51663;52.310;17.016;2022-12-18T16:48:53;21.80;20.40
65072;DHT22;51663;52.310;17.016;2022-12-18T16:51:56;21.60;20.20
65072;DHT22;51663;52.310;17.016;2022-12-18T16:54:58;21.30;20.50
65072;DHT22;51663;52.310;17.016;2022-12-18T16:58:00;21.10;20.60
65072;DHT22;51663;52.310;17.016;2022-12-18T17:01:07;21.10;20.50
65072;DHT22;51663;52.310;17.016;2022-12-18T17:04:10;21.20;20.60
65072;DHT22;51663;52.310;17.016;2022-12-18T17:07:13;21.30;20.90
65072;DHT22;51663;52.310;17.016;2022-12-18T17:10:15;21.00;20.60
65072;DHT22;51663;52.310;17.016;2022-12-18T17:13:17;21.50;20.30
65072;DHT22;51663;52.310;17.016;2022-12-18T17:16:26;21.60;20.30
65072;DHT22;51663;52.310;17.016;2022-12-18T17:19:28;21.60;20.30
65072;DHT22;51663;52.310;17.016;2022-12-18T17:22:31;21.90;20.10
65072;DHT22;51663;52.310;17.016;2022-12-18T17:25:34;21.90;19.90
65072;DHT22;51663;52.310;17.016;2022-12-18T17:29:00;21.70;20.00
65072;DHT22;51663;52.310;17.016;2022-12-18T17:32:02;21.70;19.80
65072;DHT22;51663;52.310;17.016;2022-12-18T17:35:04;21.50;20.00
65072;DHT22;51663;52.310;17.016;2022-12-18T17:38:09;21.60;20.10
65072;DHT22;51663;52.310;17.016;2022-12-18T17:41:11;21.70;20.10
65072;DHT22;51663;52.310;17.016;2022-12-18T17:44:13;21.90;20.10
65072;DHT22;51663;52.310;17.016;2022-12-18T17:47:15;21.90;19.90
65072;DHT22;51663;52.310;17.016;2022-12-18T17:50:18;21.70;19.80
65072;DHT22;51663;52.310;17.016;2022-12-18T17:53:20;21.60;19.90
65072;DHT22;51663;52.310;17.016;2022-12-18T17:56:23;21.60;20.00
65072;DHT22;51663;52.310;17.016;2022-12-18T17:59:26;21.90;20.00
65072;DHT22;51663;52.310;17.016;2022-12-18T18:02:28;22.00;19.90
65072;DHT22;51663;52.310;17.016;2022-12-18T18:05:31;22.00;19.90
65072;DHT22;51663;52.310;17.016;2022-12-18T18:08:35;22.10;19.80
65072;DHT22;51663;52.310;17.016;2022-12-18T18:11:37;22.00;19.70
65072;DHT22;51663;52.310;17.016;2022-12-18T18:15:00;21.70;19.80
65072;DHT22;51663;52.310;17.016;2022-12-18T18:18:02;21.70;19.80
65072;DHT22;51663;52.310;17.016;2022-12-18T18:21:05;21.50;20.00
65072;DHT22;51663;52.310;17.016;2022-12-18T18:24:10;21.60;20.00
65072;DHT22;51663;52.310;17.016;2022-12-18T18:27:12;21.30;20.10
65072;DHT22;51663;52.310;17.016;2022-12-18T18:30:14;21.30;20.30
65072;DHT22;51663;52.310;17.016;2022-12-18T18:33:17;20.80;20.40
65072;DHT22;51663;52.310;17.016;2022-12-18T18:36:19;20.60;20.50
65072;DHT22;51663;52.310;17.016;2022-12-18T18:39:23;21.00;20.50
65072;DHT22;51663;52.310;17.016;2022-12-18T18:42:25;20.90;20.50
65072;DHT22;51663;52.310;17.016;2022-12-18T18:45:27;20.80;20.40
65072;DHT22;51663;52.310;17.016;2022-12-18T18:48:32;20.90;20.50
65072;DHT22;51663;52.310;17.016;2022-12-18T18:51:36;21.10;20.40
65072;DHT22;51663;52.310;17.016;2022-12-18T18:54:38;21.10;20.20
65072;DHT22;51663;52.310;17.016;2022-12-18T18:58:00;21.10;20.20
65072;DHT22;51663;52.310;17.016;2022-12-18T19:01:07;20.80;20.40
65072;DHT22;51663;52.310;17.016;2022-12-18T19:04:10;20.80;20.50
65072;DHT22;51663;52.310;17.016;2022-12-18T19:07:14;21.00;20.30
65072;DHT22;51663;52.310;17.016;2022-12-18T19:10:32;20.90;20.30
65072;DHT22;51663;52.310;17.016;2022-12-18T19:13:34;20.50;20.50
65072;DHT22;51663;52.310;17.016;2022-12-18T19:16:39;20.80;20.50
65072;DHT22;51663;52.310;17.016;2022-12-18T19:19:44;21.10;20.30
65072;DHT22;51663;52.310;17.016;2022-12-18T19:22:47;21.10;20.00
65072;DHT22;51663;52.310;17.016;2022-12-18T19:26:04;20.60;20.20
65072;DHT22;51663;52.310;17.016;2022-12-18T19:29:27;20.60;20.50
65072;DHT22;51663;52.310;17.016;2022-12-18T19:32:29;20.80;20.20
65072;DHT22;51663;52.310;17.016;2022-12-18T19:35:32;20.80;20.10
65072;DHT22;51663;52.310;17.016;2022-12-18T19:38:34;21.00;20.30
65072;DHT22;51663;52.310;17.016;2022-12-18T19:41:37;21.00;20.20
65072;DHT22;51663;52.310;17.016;2022-12-18T19:44:39;20.80;20.10
65072;DHT22;51663;52.310;17.016;2022-12-18T19:47:41;20.70;20.20
65072;DHT22;51663;52.310;17.016;2022-12-18T19:50:43;20.80;20.30
65072;DHT22;51663;52.310;17.016;2022-12-18T19:53:45;21.20;20.10
65072;DHT22;51663;52.310;17.016;2022-12-18T19:56:47;21.20;19.90
65072;DHT22;51663;52.310;17.016;2022-12-18T19:59:50;21.00;20.00
65072;DHT22;51663;52.310;17.016;2022-12-18T20:02:52;21.20;19.80
65072;DHT22;51663;52.310;17.016;2022-12-18T20:09:29;21.40;19.70
65072;DHT22;51663;52.310;17.016;2022-12-18T20:12:32;21.30;19.80
65072;DHT22;51663;52.310;17.016;2022-12-18T20:15:34;21.40;19.70
65072;DHT22;51663;52.310;17.016;2022-12-18T20:18:46;21.20;19.60
65072;DHT22;51663;52.310;17.016;2022-12-18T20:21:48;21.30;19.80
65072;DHT22;51663;52.310;17.016;2022-12-18T20:24:51;21.50;19.70
65072;DHT22;51663;52.310;17.016;2022-12-18T20:27:52;21.40;19.70
65072;DHT22;51663;52.310;17.016;2022-12-18T20:31:02;21.60;19.70
65072;DHT22;51663;52.310;17.016;2022-12-18T20:34:04;21.70;19.60
65072;DHT22;51663;52.310;17.016;2022-12-18T20:37:09;21.80;19.50
65072;DHT22;51663;52.310;17.016;2022-12-18T20:40:12;21.60;19.50
65072;DHT22;51663;52.310;17.016;2022-12-18T20:43:15;21.40;19.70
65072;DHT22;51663;52.310;17.016;2022-12-18T20:46:18;21.00;19.80
65072;DHT22;51663;52.310;17.016;2022-12-18T20:49:23;21.00;20.00
65072;DHT22;51663;52.310;17.016;2022-12-18T20:52:25;21.10;20.10
65072;DHT22;51663;52.310;17.016;2022-12-18T20:55:27;21.40;19.70
65072;DHT22;51663;52.310;17.016;2022-12-18T20:58:29;21.20;19.70